Time;durP1;ratioP1;P1;durP2;ratioP2;P2;SDS_P1;SDS_P2;PMS_P1;PMS_P2;Temp;Humidity;BMP_temperature;BMP_pressure;BME280_temperature;BME280_humidity;BME280_pressure;Samples;Min_cycle;Max_cycle;Signal;HPM_P1;HPM_P2
2022/01/24 00:02:26;;;;;;;82.83;41.07;;;;;;;-145.18;100.00;46644.78;4990133;28;20268;-74
2022/01/24 00:04:52;;;;;;;89.67;41.83;;;;;;;-145.18;100.00;46646.72;4989521;28;20423;-74
2022/01/24 00:07:20;;;;;;;86.90;37.80;;;;;;;-145.18;100.00;46642.81;4990024;28;20276;-74
2022/01/24 00:09:46;;;;;;;87.40;41.60;;;;;;;-145.18;100.00;46640.88;4990159;28;20655;-74
2022/01/24 00:12:18;;;;;;;90.10;40.37;;;;;;;-145.18;100.00;46640.88;4990134;28;20279;-74
2022/01/24 00:28:05;;;;;;;98.80;43.37;;;;;;;-145.18;100.00;46642.81;4990002;28;20347;-74
2022/01/24 00:30:31;;;;;;;98.53;44.73;;;;;;;-145.18;100.00;46633.06;4990040;28;20775;-74
2022/01/24 00:32:56;;;;;;;97.33;44.40;;;;;;;-145.18;100.00;46646.72;4988455;28;20280;-74
2022/01/24 00:35:21;;;;;;;100.37;44.37;;;;;;;-145.18;100.00;46640.88;4989613;28;20050;-74
2022/01/24 00:37:47;;;;;;;92.83;41.77;;;;;;;-145.18;100.00;46636.94;4989423;28;20034;-74
2022/01/24 00:40:12;;;;;;;87.63;42.17;;;;;;;-145.18;100.00;46642.81;4990487;28;20476;-74
2022/01/24 00:42:57;;;;;;;92.70;41.37;;;;;;;-145.18;100.00;46636.94;4989286;28;20050;-74
2022/01/24 00:45:33;;;;;;;88.23;41.73;;;;;;;-145.18;100.00;46646.72;4989886;28;20069;-74
2022/01/24 00:53:37;;;;;;;91.68;40.88;;;;;;;-145.18;100.00;46633.06;4989573;28;20041;-74
2022/01/24 00:56:03;;;;;;;85.97;40.40;;;;;;;-145.18;100.00;46638.91;4989172;28;20480;-74
2022/01/24 00:58:28;;;;;;;94.23;40.50;;;;;;;-145.18;100.00;46638.91;4989424;28;20288;-74
2022/01/24 01:00:54;;;;;;;90.77;41.60;;;;;;;-145.18;100.00;46644.78;4988579;28;20046;-74
2022/01/24 01:03:20;;;;;;;86.10;38.20;;;;;;;-145.18;100.00;46646.72;4989187;28;20035;-74
2022/01/24 01:18:49;;;;;;;75.90;36.03;;;;;;;-145.18;100.00;46646.72;4989101;28;20359;-74
2022/01/24 01:21:16;;;;;;;77.13;34.80;;;;;;;-145.18;100.00;46636.94;4988841;28;20117;-74
2022/01/24 01:23:47;;;;;;;70.80;34.93;;;;;;;-145.18;100.00;46640.88;4988582;28;20038;-74
2022/01/24 01:28:55;;;;;;;73.10;34.57;;;;;;;-145.18;100.00;46642.81;4988755;28;20272;-74
2022/01/24 01:34:29;;;;;;;70.40;33.83;;;;;;;-145.18;100.00;46652.59;4982365;28;20312;-74
2022/01/24 01:39:55;;;;;;;70.57;34.03;;;;;;;-145.18;100.00;46652.59;4988606;28;20307;-74
2022/01/24 01:56:07;;;;;;;59.70;30.57;;;;;;;-145.18;100.00;46681.88;4951006;28;20276;-74
2022/01/24 01:58:33;;;;;;;65.33;32.33;;;;;;;-145.18;100.00;46676.03;4988027;28;20275;-74
2022/01/24 02:01:00;;;;;;;60.83;31.97;;;;;;;-145.18;100.00;46679.94;4987816;28;20276;-74
2022/01/24 02:03:27;;;;;;;68.63;30.07;;;;;;;-145.18;100.00;46693.59;4987873;28;20035;-74
2022/01/24 02:05:52;;;;;;;60.57;31.43;;;;;;;-145.18;100.00;46703.38;4987139;28;20280;-74
2022/01/24 02:08:22;;;;;;;57.73;30.23;;;;;;;-145.18;100.00;46709.22;4987852;28;20283;-74
2022/01/24 02:10:47;;;;;;;65.43;32.33;;;;;;;-145.18;100.00;46720.94;4987690;28;20034;-75
2022/01/24 02:13:13;;;;;;;61.77;32.27;;;;;;;-145.18;100.00;46734.63;4988276;28;20299;-74
2022/01/24 02:25:54;;;;;;;71.67;35.43;;;;;;;-145.18;100.00;46775.66;4987926;28;20283;-74
2022/01/24 02:28:22;;;;;;;71.87;35.60;;;;;;;-145.18;100.00;46785.41;4986883;28;20284;-74
2022/01/24 02:33:15;;;;;;;69.40;35.03;;;;;;;-145.18;100.00;46773.69;4987262;28;20284;-74
2022/01/24 02:35:41;;;;;;;64.80;35.40;;;;;;;-145.18;100.00;46785.41;4987241;28;20652;-74
2022/01/24 02:46:01;;;;;;;65.40;33.00;;;;;;;-145.18;100.00;46775.66;4987674;28;20085;-74
2022/01/24 02:49:06;;;;;;;67.63;35.63;;;;;;;-145.18;100.00;46779.56;4973151;28;20271;-74
2022/01/24 02:51:45;;;;;;;67.60;35.13;;;;;;;-145.18;100.00;46771.75;4987122;28;20276;-74
2022/01/24 02:54:38;;;;;;;65.40;34.20;;;;;;;-145.18;100.00;46781.50;4970138;28;20407;-73
2022/01/24 02:57:05;;;;;;;67.67;34.50;;;;;;;-145.18;100.00;46769.78;4984229;28;20264;-73
2022/01/24 02:59:31;;;;;;;70.47;36.20;;;;;;;-145.18;100.00;46814.72;4987498;28;20268;-73
2022/01/24 03:01:58;;;;;;;71.97;37.17;;;;;;;-145.18;100.00;46814.72;4969218;23;20530;-73
2022/01/24 03:04:23;;;;;;;72.30;36.53;;;;;;;-145.18;100.00;46793.22;5018063;28;20291;-74
2022/01/24 03:06:49;;;;;;;72.90;36.10;;;;;;;-145.18;100.00;46797.13;5006902;28;20312;-73
2022/01/24 03:09:15;;;;;;;73.97;37.23;;;;;;;-145.18;100.00;46791.28;5026810;28;20555;-73
2022/01/24 03:14:18;;;;;;;68.15;34.08;;;;;;;-145.18;100.00;46816.66;5026799;28;20309;-73
2022/01/24 03:16:43;;;;;;;69.67;35.67;;;;;;;-145.18;100.00;46828.38;5026452;28;20122;-73
2022/01/24 03:19:09;;;;;;;66.77;35.00;;;;;;;-145.18;100.00;46832.28;5026736;28;20305;-73
2022/01/24 03:21:34;;;;;;;68.97;36.00;;;;;;;-145.18;100.00;46822.53;5026413;28;20125;-73
2022/01/24 03:24:00;;;;;;;68.60;36.50;;;;;;;-145.18;100.00;46844.00;5026508;28;20049;-73
2022/01/24 03:26:25;;;;;;;70.60;35.80;;;;;;;-145.18;100.00;46830.34;5027220;28;20041;-74
2022/01/24 03:28:51;;;;;;;71.27;37.60;;;;;;;-145.18;100.00;46842.06;5026480;28;20507;-73
2022/01/24 03:31:16;;;;;;;70.17;35.97;;;;;;;-145.18;100.00;46836.19;5026901;28;20033;-73
2022/01/24 03:33:41;;;;;;;68.57;35.73;;;;;;;-145.18;100.00;46826.44;5025581;28;20091;-73
2022/01/24 03:36:07;;;;;;;69.27;36.30;;;;;;;-145.18;100.00;46810.81;5026407;28;20042;-73
2022/01/24 03:38:32;;;;;;;67.33;35.67;;;;;;;-145.18;100.00;46834.25;5026466;28;20387;-73
2022/01/24 03:40:58;;;;;;;65.70;35.10;;;;;;;-145.18;100.00;46842.06;5027501;28;20064;-73
2022/01/24 03:43:24;;;;;;;65.93;35.07;;;;;;;-145.18;100.00;46875.28;5026398;28;20045;-73
2022/01/24 03:46:10;;;;;;;63.77;34.17;;;;;;;-145.18;100.00;46898.72;5026260;28;20182;-73
2022/01/24 03:48:43;;;;;;;63.33;34.28;;;;;;;-145.18;100.00;46894.81;5026095;28;20382;-73
2022/01/24 03:51:10;;;;;;;59.17;31.30;;;;;;;-145.18;100.00;46935.81;5026972;28;20044;-73
2022/01/24 03:53:35;;;;;;;52.13;28.87;;;;;;;-145.18;100.00;47094.06;5026095;28;20286;-74
2022/01/24 03:56:01;;;;;;;45.60;25.80;;;;;;;-145.18;100.00;47271.84;5026272;28;20275;-73
2022/01/24 03:58:26;;;;;;;41.73;22.67;;;;;;;-145.18;100.00;47666.50;5026279;28;20060;-73
2022/01/24 04:00:52;;;;;;;34.03;19.97;;;;;;;-145.18;100.00;47641.09;5008854;28;20046;-74
2022/01/24 04:03:18;;;;;;;36.87;20.40;;;;;;;-145.18;100.00;47629.38;5025524;28;20547;-75
2022/01/24 04:05:43;;;;;;;44.77;22.93;;;;;;;-145.18;100.00;47617.66;5009330;28;20038;-73
2022/01/24 04:08:09;;;;;;;41.40;22.40;;;;;;;-145.18;100.00;47633.28;5008524;28;20477;-73
2022/01/24 04:10:41;;;;;;;47.67;24.63;;;;;;;-145.18;100.00;47613.75;5012185;28;20038;-73
2022/01/24 04:13:22;;;;;;;44.97;24.57;;;;;;;-145.18;100.00;47615.69;5011518;28;20513;-73
2022/01/24 04:16:11;;;;;;;45.90;24.50;;;;;;;-145.18;100.00;47668.44;5030040;28;20270;-73
2022/01/24 04:18:54;;;;;;;42.53;25.33;;;;;;;-145.18;100.00;47645.00;5029146;28;20266;-73
2022/01/24 04:21:27;;;;;;;40.20;23.42;;;;;;;-145.18;100.00;47660.63;5030009;28;20037;-74
2022/01/24 04:26:24;;;;;;;43.57;24.83;;;;;;;-145.18;100.00;47668.44;5029764;28;20267;-74
2022/01/24 04:28:50;;;;;;;43.80;24.97;;;;;;;-145.18;100.00;47645.00;5029199;28;20357;-74
2022/01/24 04:31:16;;;;;;;45.73;24.87;;;;;;;-145.18;100.00;47676.25;5029357;28;20358;-74
2022/01/24 04:33:42;;;;;;;46.57;25.50;;;;;;;-145.18;100.00;47652.81;5028928;28;20045;-73
2022/01/24 04:36:07;;;;;;;44.50;25.80;;;;;;;-145.18;100.00;47664.53;5029246;28;20255;-74
2022/01/24 04:38:33;;;;;;;46.13;25.10;;;;;;;-145.18;100.00;47646.97;5029819;28;20033;-73
2022/01/24 04:41:03;;;;;;;45.23;25.97;;;;;;;-145.18;100.00;47639.13;5030113;28;20041;-73
2022/01/24 04:43:52;;;;;;;47.53;25.17;;;;;;;-145.18;100.00;47617.66;5029164;28;20124;-73
2022/01/24 04:51:50;;;;;;;44.63;24.58;;;;;;;-145.18;100.00;47654.78;5029468;28;20323;-73
2022/01/24 04:57:00;;;;;;;48.13;26.43;;;;;;;-145.18;100.00;47631.31;5029256;28;20277;-73
2022/01/24 04:59:25;;;;;;;48.70;25.97;;;;;;;-145.18;100.00;47609.84;5028843;28;20278;-73
2022/01/24 05:01:51;;;;;;;49.57;26.87;;;;;;;-145.18;100.00;47629.38;5028364;28;20041;-74
2022/01/24 05:04:16;;;;;;;46.27;26.47;;;;;;;-145.18;100.00;47623.50;5010955;28;20123;-73
2022/01/24 05:06:42;;;;;;;54.10;27.63;;;;;;;-145.18;100.00;47631.31;5028703;28;20091;-74
2022/01/24 05:09:07;;;;;;;55.97;27.87;;;;;;;-145.18;100.00;47615.69;5029013;28;20041;-73
2022/01/24 05:11:48;;;;;;;51.23;28.10;;;;;;;-145.18;100.00;47650.88;5011395;28;20088;-73
2022/01/24 05:25:09;;;;;;;52.70;29.10;;;;;;;-145.18;100.00;47654.78;5028480;28;20694;-73
2022/01/24 05:27:35;;;;;;;53.83;27.87;;;;;;;-145.18;100.00;47662.59;5010193;28;20314;-74
2022/01/24 05:30:00;;;;;;;54.00;29.37;;;;;;;-145.18;100.00;47652.81;5028423;28;20092;-73
2022/01/24 05:32:25;;;;;;;49.30;27.90;;;;;;;-145.18;100.00;47676.25;5028199;28;20421;-73
2022/01/24 05:34:51;;;;;;;51.97;27.90;;;;;;;-145.18;100.00;47660.63;5028044;28;20049;-73
2022/01/24 05:37:16;;;;;;;51.17;27.63;;;;;;;-145.18;100.00;47617.66;5028561;28;20405;-73
2022/01/24 05:39:42;;;;;;;46.90;26.37;;;;;;;-145.18;100.00;47623.50;5028146;28;20481;-73
2022/01/24 05:42:07;;;;;;;49.43;27.13;;;;;;;-145.18;100.00;47648.91;5028055;28;20516;-73
2022/01/24 05:44:33;;;;;;;53.40;28.07;;;;;;;-145.18;100.00;47615.69;4993833;28;20072;-73
2022/01/24 05:46:58;;;;;;;49.83;27.30;;;;;;;-145.18;100.00;47646.97;5027837;28;20117;-73
2022/01/24 05:49:23;;;;;;;50.33;27.93;;;;;;;-145.18;100.00;47639.13;5027809;28;20117;-73
2022/01/24 05:51:49;;;;;;;49.40;28.17;;;;;;;-145.18;100.00;47645.00;5010885;28;20100;-73
2022/01/24 05:54:14;;;;;;;55.00;28.47;;;;;;;-145.18;100.00;47637.19;5027458;28;20042;-73
2022/01/24 05:56:40;;;;;;;56.23;29.13;;;;;;;-145.18;100.00;47668.44;5010221;28;20060;-73
2022/01/24 05:59:05;;;;;;;53.07;28.17;;;;;;;-145.18;100.00;47660.63;5009857;28;20045;-73
2022/01/24 06:01:30;;;;;;;54.30;28.73;;;;;;;-145.18;100.00;47676.25;5021241;28;20096;-73
2022/01/24 06:12:08;;;;;;;53.40;28.37;;;;;;;-145.18;100.00;47621.56;4982986;28;20347;-74
2022/01/24 06:30:10;;;;;;;50.30;27.53;;;;;;;-145.18;100.00;47668.44;4960977;28;20336;-73
2022/01/24 06:33:55;;;;;;;49.40;27.03;;;;;;;-145.18;100.00;47682.13;4923896;28;20300;-73
2022/01/24 06:51:54;;;;;;;50.93;26.90;;;;;;;-145.18;100.00;47643.03;4975832;28;20446;-73
2022/01/24 06:55:43;;;;;;;52.90;29.57;;;;;;;-145.18;100.00;47689.94;4966275;28;20383;-73
2022/01/24 06:59:29;;;;;;;55.73;28.70;;;;;;;-145.18;100.00;47684.06;4965747;28;20284;-74
